Time;durP1;ratioP1;P1;durP2;ratioP2;P2;SDS_P1;SDS_P2;PMS_P1;PMS_P2;Temp;Humidity;BMP_temperature;BMP_pressure;BME280_temperature;BME280_humidity;BME280_pressure;Samples;Min_cycle;Max_cycle;Signal;HPM_P1;HPM_P2
2023/03/08 00:00:42;;;;;;;104.05;7.25;;;;;;;;;;5030471;28;20260;-58
2023/03/08 00:03:11;;;;;;;99.13;9.90;;;;;;;;;;5027739;28;20034;-59
2023/03/08 00:05:36;;;;;;;102.90;7.82;;;;;;;;;;5029208;28;20091;-58
2023/03/08 00:08:02;;;;;;;98.88;7.88;;;;;;;;;;5028750;28;20025;-58
2023/03/08 00:10:27;;;;;;;120.88;9.65;;;;;;;;;;5027864;28;20041;-57
2023/03/08 00:12:52;;;;;;;102.27;8.10;;;;;;;;;;5029896;28;20659;-56
2023/03/08 00:15:18;;;;;;;101.97;6.50;;;;;;;;;;5026737;28;20287;-56
2023/03/08 00:17:43;;;;;;;127.65;9.50;;;;;;;;;;5029741;28;20251;-56
2023/03/08 00:20:10;;;;;;;96.33;7.63;;;;;;;;;;5028084;28;20022;-56
2023/03/08 00:22:35;;;;;;;129.18;8.88;;;;;;;;;;5027330;28;20260;-58
2023/03/08 00:25:01;;;;;;;120.78;8.13;;;;;;;;;;5029097;28;20268;-56
2023/03/08 00:27:26;;;;;;;103.25;7.85;;;;;;;;;;5027236;28;20386;-57
2023/03/08 00:29:51;;;;;;;110.53;7.47;;;;;;;;;;5027220;28;20025;-55
2023/03/08 00:32:16;;;;;;;92.30;6.67;;;;;;;;;;5026277;28;20358;-57
2023/03/08 00:34:45;;;;;;;142.43;10.20;;;;;;;;;;5026690;28;20310;-57
2023/03/08 00:37:10;;;;;;;125.28;8.60;;;;;;;;;;5027349;28;20801;-58
2023/03/08 00:39:35;;;;;;;96.88;8.20;;;;;;;;;;5028011;28;20601;-56
2023/03/08 00:42:00;;;;;;;113.67;7.87;;;;;;;;;;5026186;28;20089;-58
2023/03/08 00:44:26;;;;;;;106.40;8.23;;;;;;;;;;5027928;28;20244;-57
2023/03/08 00:46:51;;;;;;;114.53;7.07;;;;;;;;;;5024908;28;20263;-57
2023/03/08 00:49:16;;;;;;;104.57;8.13;;;;;;;;;;5027219;28;20249;-56
2023/03/08 00:51:41;;;;;;;129.07;9.23;;;;;;;;;;5026628;28;20343;-57
2023/03/08 00:54:06;;;;;;;113.20;8.55;;;;;;;;;;5025280;28;20426;-56
2023/03/08 00:56:32;;;;;;;118.73;7.27;;;;;;;;;;5026366;28;20036;-58
2023/03/08 00:58:57;;;;;;;110.17;7.63;;;;;;;;;;5027161;28;20267;-56
2023/03/08 01:01:22;;;;;;;101.13;7.77;;;;;;;;;;5028934;28;20283;-57
2023/03/08 01:03:47;;;;;;;102.37;6.57;;;;;;;;;;5026160;28;20255;-57
2023/03/08 01:06:14;;;;;;;94.40;8.15;;;;;;;;;;5026006;28;20267;-56
2023/03/08 01:08:40;;;;;;;108.95;8.65;;;;;;;;;;5025684;28;20029;-57
2023/03/08 01:11:06;;;;;;;97.28;9.70;;;;;;;;;;5026347;28;20116;-55
2023/03/08 01:13:33;;;;;;;98.68;7.72;;;;;;;;;;5027437;28;20163;-56
2023/03/08 01:15:58;;;;;;;118.15;8.13;;;;;;;;;;5026244;28;20094;-56
2023/03/08 01:18:24;;;;;;;92.60;8.10;;;;;;;;;;5026715;28;20036;-57
2023/03/08 01:21:00;;;;;;;109.30;8.73;;;;;;;;;;5027892;28;20041;-56
2023/03/08 01:23:25;;;;;;;99.90;8.65;;;;;;;;;;5024729;28;20040;-56
2023/03/08 01:26:00;;;;;;;98.35;6.80;;;;;;;;;;5024970;28;20029;-55
2023/03/08 01:28:26;;;;;;;112.72;9.50;;;;;;;;;;5027933;28;20041;-56
2023/03/08 01:30:51;;;;;;;85.78;6.85;;;;;;;;;;5026125;28;20106;-56
2023/03/08 01:33:16;;;;;;;110.43;8.37;;;;;;;;;;5025983;28;20025;-55
2023/03/08 01:35:41;;;;;;;110.47;8.87;;;;;;;;;;5025745;28;20272;-55
2023/03/08 01:38:07;;;;;;;122.07;8.90;;;;;;;;;;5026362;28;20256;-56
2023/03/08 01:40:32;;;;;;;128.90;8.30;;;;;;;;;;5025376;28;20047;-57
2023/03/08 01:42:57;;;;;;;102.93;7.90;;;;;;;;;;5026654;28;20406;-57
2023/03/08 01:45:41;;;;;;;112.03;8.13;;;;;;;;;;5024601;28;20674;-57
2023/03/08 01:48:06;;;;;;;92.95;6.15;;;;;;;;;;5026231;28;20018;-56
2023/03/08 01:50:31;;;;;;;97.85;8.63;;;;;;;;;;5025765;28;20063;-57
2023/03/08 01:52:57;;;;;;;118.90;8.77;;;;;;;;;;5033986;28;20090;-56
2023/03/08 01:55:22;;;;;;;117.50;7.82;;;;;;;;;;5026065;28;20537;-56
2023/03/08 01:57:50;;;;;;;119.93;8.70;;;;;;;;;;5029151;28;20214;-54
2023/03/08 02:00:23;;;;;;;83.20;8.20;;;;;;;;;;5026991;28;20025;-57
2023/03/08 02:02:51;;;;;;;122.10;9.48;;;;;;;;;;5026137;28;20246;-55
2023/03/08 02:05:16;;;;;;;109.40;9.32;;;;;;;;;;5025451;28;20020;-56
2023/03/08 02:07:41;;;;;;;107.38;7.25;;;;;;;;;;5024450;28;20299;-57
2023/03/08 02:10:08;;;;;;;114.00;9.53;;;;;;;;;;5027169;28;20028;-57
2023/03/08 02:12:34;;;;;;;129.40;9.45;;;;;;;;;;5026854;28;20277;-55
2023/03/08 02:15:01;;;;;;;99.25;7.32;;;;;;;;;;5026075;28;20032;-56
2023/03/08 02:17:26;;;;;;;94.85;6.47;;;;;;;;;;5023920;28;20038;-58
2023/03/08 02:19:54;;;;;;;90.32;7.60;;;;;;;;;;5025479;28;20028;-55
2023/03/08 02:22:19;;;;;;;107.32;7.88;;;;;;;;;;5026363;28;20076;-57
2023/03/08 02:24:45;;;;;;;138.82;9.50;;;;;;;;;;5026583;28;20063;-56
2023/03/08 02:27:13;;;;;;;105.28;7.13;;;;;;;;;;5025536;28;20040;-57
2023/03/08 02:29:38;;;;;;;112.63;8.45;;;;;;;;;;5026089;28;20029;-57
2023/03/08 02:32:04;;;;;;;98.97;7.55;;;;;;;;;;5024108;28;20332;-55
2023/03/08 02:34:29;;;;;;;125.00;7.20;;;;;;;;;;5025145;28;20625;-55
2023/03/08 02:36:54;;;;;;;127.03;8.63;;;;;;;;;;5024160;28;20043;-57
2023/03/08 02:39:19;;;;;;;92.10;6.80;;;;;;;;;;5025369;28;20618;-57
2023/03/08 02:41:45;;;;;;;130.83;9.17;;;;;;;;;;5023743;28;20029;-58
2023/03/08 02:44:10;;;;;;;108.38;8.30;;;;;;;;;;5024994;28;20283;-56
2023/03/08 02:46:35;;;;;;;121.13;8.63;;;;;;;;;;5025542;28;20103;-56
2023/03/08 02:49:00;;;;;;;134.70;9.55;;;;;;;;;;5024142;28;20310;-57
2023/03/08 02:51:26;;;;;;;110.28;8.07;;;;;;;;;;5024258;28;20033;-57
2023/03/08 02:53:51;;;;;;;122.18;7.68;;;;;;;;;;5025102;28;20029;-55
2023/03/08 02:56:16;;;;;;;109.93;8.43;;;;;;;;;;5024542;28;20048;-57
2023/03/08 02:58:41;;;;;;;103.90;7.70;;;;;;;;;;5027130;28;20030;-59
2023/03/08 03:01:13;;;;;;;122.35;7.63;;;;;;;;;;5027047;28;20025;-56
2023/03/08 03:03:39;;;;;;;115.95;7.95;;;;;;;;;;5026535;28;20067;-55
2023/03/08 03:06:04;;;;;;;113.70;7.97;;;;;;;;;;5029239;28;20061;-55
2023/03/08 03:08:30;;;;;;;127.57;7.13;;;;;;;;;;5030514;28;20123;-57
2023/03/08 03:10:55;;;;;;;103.30;8.40;;;;;;;;;;5029761;28;20124;-56
2023/03/08 03:13:20;;;;;;;129.57;8.35;;;;;;;;;;5028866;28;20063;-56
2023/03/08 03:15:46;;;;;;;110.57;7.45;;;;;;;;;;5028592;28;20038;-57
2023/03/08 03:18:11;;;;;;;120.00;8.80;;;;;;;;;;5027912;28;20029;-56
2023/03/08 03:20:36;;;;;;;107.22;7.20;;;;;;;;;;5029597;28;20282;-56
2023/03/08 03:23:02;;;;;;;115.55;7.85;;;;;;;;;;5029328;28;20380;-57
2023/03/08 03:25:27;;;;;;;120.80;7.63;;;;;;;;;;5031382;28;20021;-55
2023/03/08 03:27:53;;;;;;;135.07;9.13;;;;;;;;;;5029254;28;20104;-57
2023/03/08 03:30:18;;;;;;;105.63;6.82;;;;;;;;;;5028592;28;20056;-56
2023/03/08 03:32:43;;;;;;;139.83;8.90;;;;;;;;;;5027803;28;20773;-55
2023/03/08 03:35:09;;;;;;;110.93;8.30;;;;;;;;;;5026084;28;20776;-56
2023/03/08 03:37:35;;;;;;;91.32;7.28;;;;;;;;;;5029324;28;20777;-57
2023/03/08 03:40:00;;;;;;;128.75;9.88;;;;;;;;;;5029428;28;20026;-56
2023/03/08 03:42:25;;;;;;;128.85;10.05;;;;;;;;;;5027960;28;20030;-57
2023/03/08 03:44:51;;;;;;;124.25;7.53;;;;;;;;;;5028672;28;20486;-57
2023/03/08 03:47:16;;;;;;;105.38;7.82;;;;;;;;;;5027061;28;20034;-56
2023/03/08 03:49:41;;;;;;;108.97;8.32;;;;;;;;;;5029397;28;20025;-56
2023/03/08 03:52:06;;;;;;;129.10;9.87;;;;;;;;;;5028071;28;20135;-57
2023/03/08 03:54:32;;;;;;;116.93;8.00;;;;;;;;;;5027894;28;20251;-57
2023/03/08 03:56:57;;;;;;;138.00;11.10;;;;;;;;;;5027438;28;20257;-56
2023/03/08 03:59:24;;;;;;;119.70;9.52;;;;;;;;;;5028204;28;20439;-56
2023/03/08 04:01:49;;;;;;;135.63;9.30;;;;;;;;;;5028440;28;20044;-55
2023/03/08 04:04:14;;;;;;;118.40;9.53;;;;;;;;;;5029263;28;20025;-56
2023/03/08 04:06:39;;;;;;;120.07;7.37;;;;;;;;;;5027822;28;20261;-56
2023/03/08 04:09:06;;;;;;;92.55;8.50;;;;;;;;;;5029419;28;20276;-55
2023/03/08 04:11:33;;;;;;;123.38;7.22;;;;;;;;;;5027234;28;20033;-57
2023/03/08 04:13:58;;;;;;;125.22;9.43;;;;;;;;;;5030243;28;20021;-57
2023/03/08 04:16:24;;;;;;;144.55;9.82;;;;;;;;;;5029270;28;20080;-56
2023/03/08 04:18:54;;;;;;;121.25;8.80;;;;;;;;;;5026972;28;20029;-57
2023/03/08 04:21:19;;;;;;;130.15;8.60;;;;;;;;;;5027107;28;20072;-56
2023/03/08 04:23:45;;;;;;;116.63;8.27;;;;;;;;;;5027099;28;20021;-56
2023/03/08 04:26:12;;;;;;;119.80;8.03;;;;;;;;;;5026517;28;20075;-57
2023/03/08 04:28:37;;;;;;;98.75;6.78;;;;;;;;;;5027589;28;20268;-57
2023/03/08 04:31:16;;;;;;;118.00;9.02;;;;;;;;;;5026864;28;20025;-58
2023/03/08 04:33:41;;;;;;;80.75;7.70;;;;;;;;;;5026545;28;20750;-57
2023/03/08 04:36:07;;;;;;;107.35;8.85;;;;;;;;;;5026425;28;20045;-56
2023/03/08 04:38:33;;;;;;;123.97;8.93;;;;;;;;;;5028839;28;20037;-58
2023/03/08 04:41:01;;;;;;;127.18;8.32;;;;;;;;;;5025540;28;20049;-55
2023/03/08 04:43:27;;;;;;;145.27;10.32;;;;;;;;;;5026448;28;20132;-57
2023/03/08 04:45:52;;;;;;;112.65;7.82;;;;;;;;;;5026003;28;20109;-58
2023/03/08 04:48:18;;;;;;;122.95;8.75;;;;;;;;;;5025895;28;20029;-58
2023/03/08 04:50:43;;;;;;;133.20;9.60;;;;;;;;;;5027714;28;20029;-59
2023/03/08 04:53:08;;;;;;;131.68;10.55;;;;;;;;;;5027664;28;20025;-57
2023/03/08 04:55:35;;;;;;;145.93;11.45;;;;;;;;;;5025307;28;20802;-58
2023/03/08 04:58:00;;;;;;;123.78;11.07;;;;;;;;;;5026494;28;20393;-57
2023/03/08 05:00:26;;;;;;;144.63;10.77;;;;;;;;;;5025712;28;20021;-57
2023/03/08 05:02:51;;;;;;;152.07;11.57;;;;;;;;;;5027590;28;20428;-58
2023/03/08 05:05:16;;;;;;;127.35;10.07;;;;;;;;;;5026847;28;20059;-57
2023/03/08 05:07:41;;;;;;;127.97;9.30;;;;;;;;;;5028409;28;20062;-59
2023/03/08 05:10:07;;;;;;;113.13;8.05;;;;;;;;;;5029331;28;20481;-57
2023/03/08 05:12:32;;;;;;;154.88;10.38;;;;;;;;;;5025260;28;20051;-58
2023/03/08 05:14:57;;;;;;;129.30;9.57;;;;;;;;;;5027269;28;20486;-58
2023/03/08 05:17:22;;;;;;;135.20;9.53;;;;;;;;;;5024256;28;20022;-59
2023/03/08 05:19:48;;;;;;;129.38;9.80;;;;;;;;;;5026211;28;20821;-59
2023/03/08 05:22:13;;;;;;;131.02;9.68;;;;;;;;;;5025341;28;20040;-60
2023/03/08 05:24:40;;;;;;;168.75;11.25;;;;;;;;;;5026202;28;20065;-59
2023/03/08 05:27:05;;;;;;;116.30;7.97;;;;;;;;;;5027159;28;20056;-59
2023/03/08 05:29:30;;;;;;;135.88;9.98;;;;;;;;;;5025555;28;20053;-59
2023/03/08 05:31:57;;;;;;;132.20;9.35;;;;;;;;;;5025031;28;20080;-58
2023/03/08 05:34:22;;;;;;;115.07;9.07;;;;;;;;;;5025024;28;20562;-59
2023/03/08 05:36:48;;;;;;;120.57;7.43;;;;;;;;;;5025276;28;20037;-59
2023/03/08 05:39:13;;;;;;;129.63;9.33;;;;;;;;;;5026403;28;20091;-60
2023/03/08 05:41:38;;;;;;;143.75;10.20;;;;;;;;;;5025628;28;20415;-58
2023/03/08 05:44:03;;;;;;;102.63;8.13;;;;;;;;;;5026040;28;20025;-60
2023/03/08 05:46:29;;;;;;;99.80;7.90;;;;;;;;;;5027285;28;20310;-58
2023/03/08 05:48:54;;;;;;;123.22;9.18;;;;;;;;;;5027395;28;20483;-58
2023/03/08 05:51:19;;;;;;;129.10;10.10;;;;;;;;;;5025703;28;20037;-58
2023/03/08 05:53:45;;;;;;;100.93;8.07;;;;;;;;;;5028110;28;20058;-59
2023/03/08 05:56:14;;;;;;;97.88;8.40;;;;;;;;;;5025404;28;20053;-59
2023/03/08 05:58:39;;;;;;;127.38;9.80;;;;;;;;;;5025875;28;20066;-59
2023/03/08 06:01:15;;;;;;;133.90;10.25;;;;;;;;;;5025014;28;20151;-58
2023/03/08 06:03:40;;;;;;;129.35;10.20;;;;;;;;;;5024600;28;20025;-57
2023/03/08 06:06:06;;;;;;;118.47;9.88;;;;;;;;;;5026027;28;20045;-58
2023/03/08 06:08:31;;;;;;;128.02;9.07;;;;;;;;;;5026498;28;20029;-58
2023/03/08 06:10:56;;;;;;;117.70;9.67;;;;;;;;;;5026481;28;20041;-58
2023/03/08 06:13:22;;;;;;;110.55;8.43;;;;;;;;;;5025443;28;20344;-58
2023/03/08 06:15:47;;;;;;;115.65;9.30;;;;;;;;;;5025779;28;20037;-59
2023/03/08 06:18:12;;;;;;;95.85;8.75;;;;;;;;;;5025913;28;20032;-57
2023/03/08 06:20:37;;;;;;;127.63;8.90;;;;;;;;;;5025285;28;20025;-59
2023/03/08 06:23:02;;;;;;;132.85;10.13;;;;;;;;;;5026962;28;20264;-58
2023/03/08 06:25:28;;;;;;;106.63;7.03;;;;;;;;;;5026547;28;20665;-57
2023/03/08 06:27:53;;;;;;;104.43;7.97;;;;;;;;;;5027816;28;20264;-59
2023/03/08 06:30:18;;;;;;;117.75;8.45;;;;;;;;;;5025264;28;20036;-57
2023/03/08 06:32:43;;;;;;;138.95;7.50;;;;;;;;;;5023762;28;20033;-60
2023/03/08 06:35:09;;;;;;;123.35;8.25;;;;;;;;;;5025173;28;20080;-60
2023/03/08 06:37:34;;;;;;;118.47;9.10;;;;;;;;;;5028289;28;20045;-59
2023/03/08 06:40:00;;;;;;;134.20;9.05;;;;;;;;;;5030028;28;20091;-57
2023/03/08 06:42:26;;;;;;;124.70;7.65;;;;;;;;;;5028705;28;20033;-58
2023/03/08 06:44:51;;;;;;;133.60;9.20;;;;;;;;;;5028801;28;20025;-58
2023/03/08 06:47:16;;;;;;;97.25;7.68;;;;;;;;;;5027679;28;20398;-58
2023/03/08 06:49:41;;;;;;;115.57;8.57;;;;;;;;;;5027705;28;20789;-58
2023/03/08 06:52:07;;;;;;;105.80;6.05;;;;;;;;;;5027510;28;20264;-59
2023/03/08 06:54:32;;;;;;;120.50;9.07;;;;;;;;;;5030354;28;20051;-57
2023/03/08 06:56:57;;;;;;;106.60;8.07;;;;;;;;;;5030109;28;20314;-57
2023/03/08 06:59:22;;;;;;;125.43;8.82;;;;;;;;;;5030563;28;20963;-60
2023/03/08 07:01:47;;;;;;;123.32;8.85;;;;;;;;;;5029255;28;20033;-58
2023/03/08 07:04:13;;;;;;;106.27;7.10;;;;;;;;;;5028459;28;20047;-57
2023/03/08 07:06:38;;;;;;;99.93;6.85;;;;;;;;;;5030809;28;20264;-59
2023/03/08 07:09:03;;;;;;;95.78;7.25;;;;;;;;;;5029150;28;20036;-60
2023/03/08 07:11:30;;;;;;;134.25;7.65;;;;;;;;;;5027413;28;20042;-58
2023/03/08 07:13:56;;;;;;;112.45;7.75;;;;;;;;;;5029002;28;20030;-59
2023/03/08 07:16:21;;;;;;;138.90;9.05;;;;;;;;;;5027304;28;20064;-58
2023/03/08 07:18:46;;;;;;;122.55;6.38;;;;;;;;;;5029054;28;20032;-58
2023/03/08 07:21:12;;;;;;;137.35;8.10;;;;;;;;;;5027874;28;20463;-58
2023/03/08 07:23:37;;;;;;;104.75;5.60;;;;;;;;;;5036797;28;20091;-58
2023/03/08 07:26:06;;;;;;;116.32;7.47;;;;;;;;;;5027966;28;20510;-57
2023/03/08 07:28:31;;;;;;;104.95;8.15;;;;;;;;;;5030110;28;20029;-58
2023/03/08 07:30:56;;;;;;;128.75;7.80;;;;;;;;;;5028806;28;20060;-57
2023/03/08 07:33:22;;;;;;;115.22;7.88;;;;;;;;;;5028866;28;20337;-60
2023/03/08 07:35:47;;;;;;;105.90;9.00;;;;;;;;;;5028965;28;20045;-59
2023/03/08 07:38:13;;;;;;;122.70;8.07;;;;;;;;;;5031607;28;20796;-60
2023/03/08 07:40:38;;;;;;;100.55;6.63;;;;;;;;;;5027946;28;20032;-59
2023/03/08 07:43:03;;;;;;;100.45;7.47;;;;;;;;;;5029000;28;20521;-59
2023/03/08 07:45:29;;;;;;;118.00;8.27;;;;;;;;;;5027514;28;20088;-58
2023/03/08 07:47:54;;;;;;;103.20;8.18;;;;;;;;;;5029338;28;20729;-58
2023/03/08 07:50:19;;;;;;;127.93;8.77;;;;;;;;;;5026360;28;20806;-59
2023/03/08 07:52:45;;;;;;;139.07;9.07;;;;;;;;;;5028932;28;20032;-59
2023/03/08 07:55:10;;;;;;;115.65;7.95;;;;;;;;;;5028364;28;20035;-58
2023/03/08 07:57:36;;;;;;;122.40;8.48;;;;;;;;;;5030013;28;20623;-57
2023/03/08 08:00:01;;;;;;;120.13;8.57;;;;;;;;;;5030582;28;20070;-59
2023/03/08 08:02:26;;;;;;;107.65;7.78;;;;;;;;;;5028630;28;20593;-58
2023/03/08 08:04:51;;;;;;;121.38;8.38;;;;;;;;;;5026795;28;20063;-60
2023/03/08 08:07:17;;;;;;;102.13;7.55;;;;;;;;;;5026599;28;20128;-58
2023/03/08 08:09:42;;;;;;;117.47;9.07;;;;;;;;;;5028186;28;20519;-58
2023/03/08 08:12:08;;;;;;;122.75;8.30;;;;;;;;;;5027134;28;20120;-59
2023/03/08 08:14:33;;;;;;;108.95;8.93;;;;;;;;;;5029448;28;20017;-60
2023/03/08 08:16:58;;;;;;;120.75;8.75;;;;;;;;;;5026746;28;20553;-59
2023/03/08 08:19:24;;;;;;;95.35;8.82;;;;;;;;;;5028014;28;20156;-57
2023/03/08 08:21:49;;;;;;;123.35;7.22;;;;;;;;;;5028562;28;20029;-58
2023/03/08 08:24:15;;;;;;;108.13;8.00;;;;;;;;;;5026961;28;20078;-58
2023/03/08 08:26:40;;;;;;;102.45;8.27;;;;;;;;;;5027649;28;20152;-59
2023/03/08 08:29:05;;;;;;;121.15;9.77;;;;;;;;;;5027902;28;20025;-58
2023/03/08 08:31:31;;;;;;;128.38;9.10;;;;;;;;;;5027167;28;20033;-59
2023/03/08 08:33:57;;;;;;;109.18;8.95;;;;;;;;;;5026622;28;20748;-59
2023/03/08 08:36:22;;;;;;;140.65;10.48;;;;;;;;;;5024871;28;20781;-59
2023/03/08 08:38:48;;;;;;;82.32;7.38;;;;;;;;;;5027729;28;20018;-59
2023/03/08 08:41:14;;;;;;;96.35;8.45;;;;;;;;;;5027530;28;20033;-60
2023/03/08 08:43:40;;;;;;;122.80;10.65;;;;;;;;;;5027513;28;20538;-59
2023/03/08 08:46:06;;;;;;;101.43;9.82;;;;;;;;;;5027408;28;20064;-59
2023/03/08 08:48:36;;;;;;;107.60;10.40;;;;;;;;;;5028739;28;20128;-58
2023/03/08 08:51:01;;;;;;;92.05;8.50;;;;;;;;;;5028094;28;20038;-59
2023/03/08 08:53:26;;;;;;;142.23;11.45;;;;;;;;;;5027526;28;20035;-58
2023/03/08 08:55:52;;;;;;;141.55;12.60;;;;;;;;;;5026988;28;20220;-59
2023/03/08 08:58:17;;;;;;;98.53;10.38;;;;;;;;;;5026103;28;20582;-58
2023/03/08 09:00:43;;;;;;;137.35;13.48;;;;;;;;;;5025766;28;20415;-59
2023/03/08 09:03:08;;;;;;;118.55;12.07;;;;;;;;;;5026861;28;20018;-58
2023/03/08 09:05:36;;;;;;;133.20;13.68;;;;;;;;;;5029020;28;20033;-59
2023/03/08 09:08:02;;;;;;;169.88;15.88;;;;;;;;;;5027151;28;20439;-60
2023/03/08 09:10:28;;;;;;;114.93;11.90;;;;;;;;;;5027672;28;22514;-58
2023/03/08 09:12:54;;;;;;;135.13;14.82;;;;;;;;;;5026264;28;20556;-57
2023/03/08 09:15:23;;;;;;;125.50;13.02;;;;;;;;;;5026563;28;20021;-58
2023/03/08 09:17:48;;;;;;;125.57;14.38;;;;;;;;;;5025729;28;20018;-59
2023/03/08 09:20:14;;;;;;;167.25;15.90;;;;;;;;;;5034875;28;20040;-59
2023/03/08 09:22:39;;;;;;;154.10;14.60;;;;;;;;;;5025904;28;20013;-58
2023/03/08 09:25:05;;;;;;;120.18;13.90;;;;;;;;;;5026797;28;20120;-60
2023/03/08 09:27:31;;;;;;;119.07;9.35;;;;;;;;;;5027653;28;20013;-57
2023/03/08 09:29:57;;;;;;;137.32;15.20;;;;;;;;;;5026606;28;20032;-59
2023/03/08 09:32:22;;;;;;;135.35;13.10;;;;;;;;;;5025400;28;20128;-59
2023/03/08 09:34:47;;;;;;;141.95;14.05;;;;;;;;;;5026534;28;20029;-58
2023/03/08 09:37:12;;;;;;;113.90;11.68;;;;;;;;;;5031193;28;20901;-59
2023/03/08 09:39:39;;;;;;;137.07;11.95;;;;;;;;;;5027259;28;20018;-58
2023/03/08 09:42:05;;;;;;;133.63;16.00;;;;;;;;;;5025409;28;20520;-59
2023/03/08 09:44:33;;;;;;;110.63;5.15;;;;;;;;;;5023831;28;20372;-57
2023/03/08 09:47:25;;;;;;;87.80;4.28;;;;;;;;;;5027969;28;20052;-58
2023/03/08 09:49:53;;;;;;;111.50;4.97;;;;;;;;;;5010968;28;20025;-58
2023/03/08 09:52:25;;;;;;;87.22;5.88;;;;;;;;;;5026385;28;20836;-58
2023/03/08 09:54:50;;;;;;;;;;;;;;;;;;5028461;28;20525;-59
2023/03/08 09:57:20;;;;;;;93.55;4.30;;;;;;;;;;5025395;28;19912;-58
2023/03/08 09:59:48;;;;;;;91.63;4.53;;;;;;;;;;5027953;28;20055;-59
2023/03/08 10:02:24;;;;;;;92.43;4.70;;;;;;;;;;5033902;28;20064;-57
2023/03/08 10:05:01;;;;;;;102.13;5.70;;;;;;;;;;5027505;28;20022;-59
2023/03/08 10:07:45;;;;;;;87.43;4.40;;;;;;;;;;5026947;28;20036;-59
2023/03/08 10:10:13;;;;;;;91.90;4.55;;;;;;;;;;5025696;28;20731;-58
2023/03/08 10:12:41;;;;;;;114.20;5.13;;;;;;;;;;5026183;28;20080;-59
2023/03/08 10:15:14;;;;;;;78.28;4.40;;;;;;;;;;5026822;28;20109;-58
2023/03/08 10:17:39;;;;;;;;;;;;;;;;;;5025715;28;20026;-60
2023/03/08 10:20:10;;;;;;;97.95;5.03;;;;;;;;;;5027004;28;19962;-60
2023/03/08 10:22:41;;;;;;;130.63;6.07;;;;;;;;;;5025855;28;20060;-57
2023/03/08 10:25:25;;;;;;;87.90;4.75;;;;;;;;;;5025115;28;20744;-58
2023/03/08 10:27:53;;;;;;;89.20;4.97;;;;;;;;;;5025239;28;20026;-56
2023/03/08 10:30:20;;;;;;;88.93;4.53;;;;;;;;;;5026452;28;20028;-57
2023/03/08 10:32:47;;;;;;;133.60;6.28;;;;;;;;;;5027469;28;20020;-58
2023/03/08 10:35:13;;;;;;;79.53;4.20;;;;;;;;;;5026525;28;20017;-59
2023/03/08 10:37:38;;;;;;;77.07;4.03;;;;;;;;;;5025731;28;20032;-59
2023/03/08 10:40:08;;;;;;;103.35;4.90;;;;;;;;;;5025831;28;20113;-58
2023/03/08 10:42:34;;;;;;;100.18;5.10;;;;;;;;;;5024559;28;20144;-57
2023/03/08 10:45:01;;;;;;;88.00;5.10;;;;;;;;;;5025754;28;20102;-56
2023/03/08 10:47:31;;;;;;;79.28;4.45;;;;;;;;;;5026324;28;20033;-57
2023/03/08 10:50:11;;;;;;;76.85;4.30;;;;;;;;;;5025670;28;20494;-58
2023/03/08 10:52:37;;;;;;;118.38;5.50;;;;;;;;;;5025864;28;20069;-58
2023/03/08 10:55:05;;;;;;;83.05;4.65;;;;;;;;;;5026706;28;20140;-58
2023/03/08 10:57:30;;;;;;;93.20;4.80;;;;;;;;;;5026169;28;20060;-57
2023/03/08 10:59:57;;;;;;;84.85;4.28;;;;;;;;;;5026598;28;20045;-56
2023/03/08 11:02:23;;;;;;;90.10;4.30;;;;;;;;;;5024320;28;20103;-57
2023/03/08 11:04:52;;;;;;;101.18;5.30;;;;;;;;;;5026730;28;20489;-58
2023/03/08 11:07:23;;;;;;;66.43;3.60;;;;;;;;;;5025964;28;20037;-60
2023/03/08 11:09:48;;;;;;;81.65;4.75;;;;;;;;;;5026265;28;20017;-57
2023/03/08 11:12:23;;;;;;;61.70;3.58;;;;;;;;;;5025253;28;20114;-57
2023/03/08 11:14:49;;;;;;;138.02;6.53;;;;;;;;;;5024649;28;20359;-58
2023/03/08 11:17:20;;;;;;;80.32;3.90;;;;;;;;;;5026726;28;20120;-59
2023/03/08 11:19:49;;;;;;;86.00;4.35;;;;;;;;;;5027799;28;20021;-60
2023/03/08 11:22:33;;;;;;;81.13;4.35;;;;;;;;;;5026874;28;20025;-58
2023/03/08 11:25:07;;;;;;;104.78;5.20;;;;;;;;;;5027571;28;20394;-56
2023/03/08 11:27:32;;;;;;;90.78;4.63;;;;;;;;;;5028071;28;20029;-58
2023/03/08 11:29:58;;;;;;;108.40;5.83;;;;;;;;;;5030300;28;20025;-57
2023/03/08 11:32:32;;;;;;;96.15;5.55;;;;;;;;;;5028673;28;20260;-57
2023/03/08 11:35:00;;;;;;;84.38;5.40;;;;;;;;;;5029230;28;20013;-57
2023/03/08 11:37:31;;;;;;;85.38;4.30;;;;;;;;;;5030368;28;20035;-56
2023/03/08 11:40:15;;;;;;;95.35;4.72;;;;;;;;;;5028145;28;20021;-57
2023/03/08 11:43:16;;;;;;;121.70;5.65;;;;;;;;;;5029909;28;20053;-58
2023/03/08 11:45:50;;;;;;;76.60;4.15;;;;;;;;;;5007859;28;20804;-59
2023/03/08 11:48:27;;;;;;;85.07;4.05;;;;;;;;;;5025758;28;20071;-59
2023/03/08 11:50:57;;;;;;;79.40;4.05;;;;;;;;;;5028884;28;20120;-58
2023/03/08 11:53:25;;;;;;;83.20;4.18;;;;;;;;;;5028356;28;20590;-57
2023/03/08 11:56:06;;;;;;;62.45;4.05;;;;;;;;;;5027216;28;20036;-57
2023/03/08 11:58:37;;;;;;;101.47;4.78;;;;;;;;;;5028258;28;20524;-57
2023/03/08 12:01:06;;;;;;;107.35;4.78;;;;;;;;;;5027834;28;20029;-57
2023/03/08 12:03:40;;;;;;;108.68;5.03;;;;;;;;;;5027876;28;20071;-57
2023/03/08 12:06:13;;;;;;;73.35;4.00;;;;;;;;;;5027801;28;20597;-59
2023/03/08 12:08:40;;;;;;;89.50;4.57;;;;;;;;;;5028446;28;20048;-56
2023/03/08 12:11:21;;;;;;;67.82;3.42;;;;;;;;;;5031292;28;20655;-59
2023/03/08 12:13:49;;;;;;;81.70;4.13;;;;;;;;;;5026930;28;20029;-59
2023/03/08 12:16:21;;;;;;;70.13;3.72;;;;;;;;;;5027373;28;20041;-58
2023/03/08 12:18:53;;;;;;;82.65;4.05;;;;;;;;;;5029108;28;20025;-59
2023/03/08 12:21:27;;;;;;;83.15;4.15;;;;;;;;;;5026557;28;20041;-58
2023/03/08 12:24:01;;;;;;;83.75;4.40;;;;;;;;;;5026674;28;20031;-57
2023/03/08 12:26:26;;;;;;;101.68;4.68;;;;;;;;;;5027862;28;20040;-59
2023/03/08 12:28:54;;;;;;;86.33;4.20;;;;;;;;;;5027983;28;20025;-58
2023/03/08 12:31:24;;;;;;;112.65;5.60;;;;;;;;;;5027147;28;20366;-58
2023/03/08 12:33:49;;;;;;;56.97;3.05;;;;;;;;;;5029084;28;20602;-59
2023/03/08 12:36:17;;;;;;;82.75;4.13;;;;;;;;;;5028119;28;20490;-57
2023/03/08 12:38:44;;;;;;;84.28;4.47;;;;;;;;;;5029298;28;20028;-58
2023/03/08 12:41:21;;;;;;;91.85;4.30;;;;;;;;;;5028515;28;20037;-59
2023/03/08 12:43:57;;;;;;;79.35;4.32;;;;;;;;;;5025807;28;20025;-59
2023/03/08 12:46:22;;;;;;;97.32;5.05;;;;;;;;;;5027668;28;20041;-57
2023/03/08 12:48:48;;;;;;;101.63;5.43;;;;;;;;;;5027268;28;20028;-58
2023/03/08 12:51:15;;;;;;;83.22;4.30;;;;;;;;;;5026007;28;20428;-58
2023/03/08 12:53:43;;;;;;;74.28;3.97;;;;;;;;;;5026032;28;20047;-60
2023/03/08 12:56:08;;;;;;;78.53;4.07;;;;;;;;;;5026423;28;20056;-58
2023/03/08 12:58:36;;;;;;;93.00;4.60;;;;;;;;;;5026337;28;20045;-58
2023/03/08 13:01:04;;;;;;;105.10;4.93;;;;;;;;;;5025857;28;20292;-58
2023/03/08 13:03:40;;;;;;;91.00;4.75;;;;;;;;;;5027714;28;20025;-57
2023/03/08 13:06:26;;;;;;;92.55;4.43;;;;;;;;;;5026169;28;20034;-59
2023/03/08 13:08:57;;;;;;;74.28;4.00;;;;;;;;;;5028695;28;20083;-58
2023/03/08 13:11:24;;;;;;;86.30;4.78;;;;;;;;;;5027639;28;20677;-59
2023/03/08 13:13:52;;;;;;;82.28;4.85;;;;;;;;;;5027432;28;20031;-56
2023/03/08 13:16:28;;;;;;;90.20;5.88;;;;;;;;;;5029097;28;20049;-58
2023/03/08 13:19:13;;;;;;;77.03;4.82;;;;;;;;;;5027118;28;20087;-59
2023/03/08 13:21:46;;;;;;;112.50;6.55;;;;;;;;;;5020226;28;20570;-59
2023/03/08 13:24:46;;;;;;;90.38;5.45;;;;;;;;;;5026963;28;20027;-59
2023/03/08 13:27:23;;;;;;;82.72;4.80;;;;;;;;;;4995145;28;20038;-57
2023/03/08 13:29:49;;;;;;;92.65;5.40;;;;;;;;;;5025802;28;20041;-57
2023/03/08 13:32:16;;;;;;;85.22;4.68;;;;;;;;;;5027293;28;20041;-59
2023/03/08 13:34:44;;;;;;;134.23;7.00;;;;;;;;;;5025427;28;20515;-59
2023/03/08 13:37:22;;;;;;;95.95;6.32;;;;;;;;;;5034729;28;20098;-58
2023/03/08 13:39:52;;;;;;;103.63;6.43;;;;;;;;;;5028156;28;20823;-57
2023/03/08 13:42:23;;;;;;;77.28;5.25;;;;;;;;;;5025609;28;20071;-58
2023/03/08 13:44:48;;;;;;;121.68;6.68;;;;;;;;;;5025498;28;20032;-57
2023/03/08 13:47:17;;;;;;;88.07;6.00;;;;;;;;;;5027209;28;20033;-57
2023/03/08 13:49:44;;;;;;;72.47;4.13;;;;;;;;;;5025838;28;20037;-56
2023/03/08 13:52:15;;;;;;;73.75;4.97;;;;;;;;;;5025101;28;20670;-57
2023/03/08 13:54:42;;;;;;;123.50;7.25;;;;;;;;;;5027198;28;20029;-58
2023/03/08 13:57:17;;;;;;;93.80;5.82;;;;;;;;;;5026547;28;20045;-57
2023/03/08 13:59:50;;;;;;;80.82;5.53;;;;;;;;;;5027191;28;20025;-57
2023/03/08 14:02:17;;;;;;;84.22;6.28;;;;;;;;;;5025842;28;20814;-57
2023/03/08 14:04:43;;;;;;;110.15;7.35;;;;;;;;;;5028354;28;20069;-59
2023/03/08 14:07:16;;;;;;;71.70;4.97;;;;;;;;;;5027788;28;20828;-57
2023/03/08 14:09:41;;;;;;;78.63;5.63;;;;;;;;;;5025710;28;20661;-58
2023/03/08 14:12:06;;;;;;;97.63;5.83;;;;;;;;;;5027174;28;20503;-59
2023/03/08 14:14:36;;;;;;;103.78;6.35;;;;;;;;;;5026356;28;20920;-55
2023/03/08 14:17:02;;;;;;;80.50;4.93;;;;;;;;;;5025803;28;20526;-58
2023/03/08 14:19:29;;;;;;;83.05;5.45;;;;;;;;;;5027014;28;20029;-56
2023/03/08 14:21:54;;;;;;;80.00;5.38;;;;;;;;;;5027417;28;20547;-58